createdAt,value
2023-04-09T08:45:31.950Z,48.30
2023-04-09T18:03:39.028Z,52.22
2023-04-09T18:04:39.022Z,52.22
2023-04-09T18:05:38.897Z,52.22
2023-04-09T18:06:38.836Z,52.22
2023-04-09T18:07:38.827Z,52.22
2023-04-09T18:08:38.833Z,52.22
2023-04-09T18:09:38.836Z,51.75
2023-04-09T18:10:38.848Z,52.03
2023-04-09T18:11:38.853Z,52.32
2023-04-09T18:12:38.863Z,52.13
2023-04-09T18:13:38.875Z,52.42
2023-04-09T18:14:38.893Z,52.51
2023-04-09T18:15:39.906Z,52.51
2023-04-09T18:17:21.449Z,53.18
2023-04-09T18:19:51.566Z,53.08
2023-04-09T18:20:51.548Z,53.28
2023-04-09T18:21:51.553Z,53.47
2023-04-09T18:22:51.568Z,53.08
2023-04-09T18:23:51.576Z,53.37
2023-04-09T18:30:49.089Z,53.82
2023-04-09T18:31:49.109Z,54.30
2023-04-09T18:32:49.187Z,54.30
2023-04-09T18:33:49.090Z,54.39
2023-04-09T18:34:49.103Z,54.59
2023-04-09T19:25:19.396Z,58.67
2023-04-09T19:26:19.382Z,58.67
2023-04-09T19:27:19.386Z,58.48
2023-04-09T19:28:19.399Z,58.38
2023-04-09T19:29:19.401Z,58.29
2023-04-09T19:30:19.416Z,58.29
2023-04-09T19:31:19.433Z,58.38
2023-04-09T19:32:19.426Z,58.36
2023-04-09T19:33:19.444Z,58.16
2023-04-09T19:34:19.442Z,58.73
2023-04-09T19:35:19.550Z,58.93
2023-04-09T19:36:19.452Z,59.02
2023-04-09T19:37:19.457Z,59.02
2023-04-09T19:38:19.526Z,59.41
2023-04-09T19:39:19.471Z,59.12
2023-04-09T19:40:19.475Z,59.78
2023-04-09T19:41:19.630Z,59.50
2023-04-09T19:42:19.483Z,59.98
2023-04-09T19:43:19.497Z,60.27
2023-04-09T19:44:19.503Z,60.55
2023-04-09T19:45:19.513Z,60.74
2023-04-09T19:46:19.519Z,61.22
2023-04-09T19:47:19.743Z,61.03
2023-04-09T19:48:19.545Z,61.32
2023-04-09T19:49:19.537Z,61.51
2023-04-09T19:50:19.544Z,61.51
2023-04-09T19:51:19.553Z,61.98
2023-04-09T19:52:19.550Z,62.08
2023-04-09T19:53:19.561Z,62.24
2023-04-09T19:54:19.572Z,62.71
2023-04-09T19:55:19.573Z,62.62
2023-04-09T19:56:19.588Z,62.43
2023-04-09T19:57:19.606Z,63.10
2023-04-09T19:58:19.592Z,62.81
2023-04-09T19:59:19.602Z,63.20
2023-04-09T20:00:19.612Z,63.10
2023-04-09T20:01:19.659Z,63.39
2023-04-09T20:02:19.821Z,63.20
2023-04-09T20:03:19.775Z,63.57
2023-04-09T20:04:19.646Z,63.76
2023-04-09T20:05:19.641Z,63.48
2023-04-09T20:06:19.650Z,63.86
2023-04-09T20:07:19.659Z,64.15
2023-04-09T20:08:19.662Z,63.96
2023-04-09T20:09:19.669Z,63.76
2023-04-09T20:10:19.702Z,64.05
2023-04-09T20:11:19.687Z,64.34
2023-04-09T20:12:19.696Z,64.62
2023-04-09T20:13:19.719Z,64.34
2023-04-09T20:14:19.710Z,64.72
2023-04-09T20:15:19.720Z,65.10
2023-04-09T20:16:19.780Z,65.10
2023-04-09T20:17:19.737Z,65.10
2023-04-09T20:18:19.734Z,64.91
2023-04-09T20:19:19.845Z,65.20
2023-04-09T20:20:19.791Z,65.39
2023-04-09T20:21:19.762Z,65.74
2023-04-09T20:22:19.765Z,65.74
2023-04-09T20:23:19.775Z,65.83
2023-04-09T20:24:19.778Z,65.83
2023-04-09T20:25:19.814Z,65.64
2023-04-09T20:26:19.795Z,65.55
2023-04-09T20:27:19.796Z,66.31
2023-04-09T20:28:19.809Z,66.22
2023-04-09T20:29:19.828Z,66.22
2023-04-09T20:30:19.827Z,66.88
2023-04-09T20:31:19.851Z,66.60
2023-04-09T20:32:20.005Z,67.27
2023-04-09T20:33:19.842Z,67.17
2023-04-09T20:34:19.845Z,67.36
2023-04-09T20:35:19.853Z,66.78
2023-04-09T20:36:19.907Z,67.33
2023-04-09T20:37:19.874Z,67.42
2023-04-09T20:38:19.869Z,67.52
2023-04-09T20:39:19.878Z,67.90
2023-04-09T20:40:19.891Z,67.80
2023-04-09T20:41:19.895Z,67.42
2023-04-09T20:42:19.907Z,67.33
2023-04-09T20:43:19.904Z,67.61
2023-04-09T20:44:19.919Z,67.90
2023-04-09T20:45:19.943Z,67.90
2023-04-09T20:46:20.088Z,67.80
2023-04-09T20:47:19.938Z,68.18
2023-04-09T21:05:29.849Z,70.34
2023-04-09T21:06:29.859Z,70.06
2023-04-09T21:07:29.832Z,70.72
2023-04-09T21:08:29.856Z,70.72
2023-04-09T21:09:29.856Z,71.01
2023-04-09T21:10:29.851Z,70.92
2023-04-09T21:11:29.867Z,70.63
2023-04-09T21:12:29.864Z,71.11
2023-04-09T21:13:30.927Z,71.20
2023-04-09T21:14:29.880Z,71.11
2023-04-09T21:15:29.883Z,71.39
2023-04-09T21:16:29.937Z,71.48
2023-04-09T21:17:29.949Z,71.39
2023-04-09T21:18:29.908Z,71.39
2023-04-09T21:19:29.923Z,71.68
2023-04-09T21:20:29.920Z,71.77
2023-04-09T21:21:29.960Z,71.96
2023-04-09T21:22:29.928Z,71.77
2023-04-09T21:23:29.943Z,72.25
2023-04-09T21:24:29.951Z,72.21
2023-04-09T21:25:29.994Z,71.96
2023-04-09T21:26:38.444Z,72.44
2023-04-09T21:27:29.977Z,72.21
2023-04-09T21:28:29.970Z,72.60
2023-04-09T21:29:29.983Z,72.69
2023-04-09T21:30:29.989Z,72.50
2023-04-09T21:31:30.057Z,73.07
2023-04-09T21:32:30.008Z,72.69
2023-04-09T21:33:30.383Z,73.17
2023-04-09T21:34:30.019Z,73.07
2023-04-09T21:35:30.044Z,73.07
2023-04-09T21:36:30.039Z,72.97
2023-04-09T21:37:30.063Z,73.07
2023-04-09T21:38:30.039Z,73.55
2023-04-09T21:39:30.039Z,74.12
2023-04-09T21:40:30.051Z,73.74
2023-04-09T21:41:30.051Z,73.36
2023-04-09T21:42:30.058Z,73.55
2023-04-09T21:43:30.070Z,73.45
2023-04-09T21:44:30.075Z,74.12
2023-04-09T21:45:30.099Z,73.83
2023-04-09T21:46:30.116Z,73.83
2023-04-09T21:47:30.111Z,73.74
2023-04-09T21:48:30.090Z,73.93
2023-04-09T21:49:30.096Z,73.17
2023-04-09T21:50:30.104Z,73.55
2023-04-09T21:51:30.110Z,73.55
2023-04-09T21:52:30.116Z,73.93
2023-04-09T21:53:30.175Z,74.02
2023-04-09T21:54:30.140Z,73.83
2023-04-09T21:55:30.134Z,73.93
2023-04-09T21:56:30.141Z,74.31
2023-04-09T21:57:30.146Z,74.02
2023-04-09T21:58:30.152Z,74.12
2023-04-09T21:59:30.164Z,74.31
2023-04-09T22:00:30.174Z,74.21
2023-04-09T22:01:30.266Z,74.21
2023-04-09T22:02:30.331Z,74.69
2023-04-09T22:03:30.244Z,74.69
2023-04-09T22:04:30.246Z,74.60
2023-04-09T22:05:30.193Z,74.31
2023-04-09T22:06:30.205Z,74.21
2023-04-09T22:07:30.213Z,74.21
2023-04-09T22:08:30.238Z,74.40
2023-04-09T22:09:30.241Z,74.50
2023-04-09T22:10:30.225Z,74.50
2023-04-09T22:11:30.236Z,74.98
2023-04-09T22:12:30.233Z,74.98
2023-04-09T22:13:30.247Z,74.98
2023-04-09T22:14:30.249Z,74.69
2023-04-09T22:15:30.256Z,74.88
2023-04-09T22:16:30.318Z,74.79
2023-04-09T22:17:30.308Z,75.07
2023-04-09T22:18:30.280Z,74.79
2023-04-09T22:19:30.285Z,75.36
2023-04-09T22:20:30.280Z,75.36
2023-04-09T22:21:30.285Z,75.26
2023-04-09T22:22:30.313Z,75.36
2023-04-09T22:23:30.299Z,75.16
2023-04-09T22:24:30.504Z,75.16
2023-04-09T22:25:30.331Z,75.36
2023-04-09T22:26:30.331Z,75.36
2023-04-09T22:27:30.329Z,74.88
2023-04-09T22:28:30.324Z,75.07
2023-04-09T22:29:30.326Z,74.98
2023-04-09T22:30:30.353Z,74.88
2023-04-09T22:31:30.399Z,75.16
2023-04-09T22:32:30.438Z,74.88
2023-04-09T22:33:30.360Z,74.88
2023-04-09T22:34:30.356Z,75.36
2023-04-09T22:35:30.431Z,75.26
2023-04-09T22:36:30.372Z,75.16
2023-04-09T22:37:30.374Z,75.16
2023-04-09T22:38:30.387Z,75.36
2023-04-09T22:39:30.386Z,75.26
2023-04-09T22:40:30.385Z,75.26
2023-04-09T22:41:30.423Z,75.16
2023-04-09T22:42:30.406Z,75.36
2023-04-09T22:43:30.414Z,74.98
2023-04-09T22:44:30.407Z,75.16
2023-04-09T22:45:30.436Z,74.98
2023-04-09T22:46:30.487Z,75.07
2023-04-09T22:47:30.463Z,75.36
2023-04-09T22:48:30.437Z,75.07
2023-04-09T22:49:30.443Z,74.98
2023-04-09T22:50:30.444Z,75.45
2023-04-09T22:51:30.459Z,75.64
2023-04-09T22:52:30.463Z,75.55
2023-04-09T22:53:30.470Z,75.93
2023-04-09T22:54:30.468Z,75.74
2023-04-09T22:55:30.485Z,75.55
2023-04-09T22:56:30.482Z,75.45
2023-04-09T22:57:30.506Z,75.26
2023-04-09T22:58:30.486Z,75.55
2023-04-09T22:59:39.240Z,75.93
2023-04-09T23:00:30.514Z,75.55
2023-04-09T23:01:30.553Z,75.74
2023-04-09T23:02:30.593Z,75.26
2023-04-09T23:03:30.583Z,75.74
2023-04-09T23:04:30.533Z,75.64
2023-04-09T23:05:30.528Z,75.93
2023-04-09T23:06:30.534Z,75.64
2023-04-09T23:07:30.536Z,75.74
2023-04-09T23:08:30.568Z,75.64
2023-04-09T23:09:30.545Z,75.64
2023-04-09T23:10:30.552Z,75.45
2023-04-09T23:11:30.580Z,75.55
2023-04-09T23:12:30.563Z,75.45
2023-04-09T23:13:30.606Z,75.84
2023-04-09T23:14:30.579Z,75.84
2023-04-09T23:15:30.582Z,75.55
2023-04-09T23:16:30.611Z,75.84
2023-04-09T23:17:30.644Z,75.64
2023-04-09T23:18:30.592Z,75.36
2023-04-09T23:19:30.608Z,75.64
2023-04-09T23:20:30.615Z,75.84
2023-04-09T23:21:30.618Z,75.93
2023-04-09T23:22:30.617Z,75.74
2023-04-09T23:23:30.628Z,76.12
2023-04-09T23:24:30.632Z,75.74
2023-04-09T23:25:30.634Z,76.12
2023-04-09T23:26:30.644Z,75.84
2023-04-09T23:27:30.642Z,75.74
2023-04-09T23:28:30.646Z,76.21
2023-04-09T23:29:30.686Z,76.12
2023-04-09T23:30:30.666Z,76.40
2023-04-09T23:31:30.727Z,76.59
2023-04-09T23:32:30.688Z,76.69
2023-04-09T23:33:30.687Z,76.88
2023-04-09T23:34:30.680Z,77.07
2023-04-09T23:35:30.701Z,76.88
2023-04-09T23:36:30.690Z,77.17
2023-04-09T23:37:30.703Z,76.79
2023-04-09T23:38:30.706Z,76.50
2023-04-09T23:39:30.717Z,76.31
2023-04-09T23:40:30.720Z,76.21
2023-04-09T23:41:30.728Z,76.69
2023-04-09T23:42:30.723Z,76.69
2023-04-09T23:43:30.744Z,76.59
2023-04-09T23:44:30.735Z,76.50
2023-04-09T23:45:30.773Z,76.50
2023-04-09T23:46:30.763Z,76.56
2023-04-09T23:47:30.784Z,76.59
2023-04-09T23:48:30.761Z,76.75
2023-04-09T23:49:30.769Z,76.75
2023-04-09T23:50:30.774Z,76.94
2023-04-09T23:51:30.776Z,76.84
2023-04-09T23:52:30.784Z,76.94
2023-04-09T23:53:30.786Z,77.03
2023-04-09T23:54:30.805Z,77.32
2023-04-09T23:55:30.799Z,77.42
2023-04-09T23:56:30.805Z,77.70
2023-04-09T23:57:30.805Z,77.80
2023-04-09T23:58:30.812Z,77.61
2023-04-09T23:59:30.815Z,77.51
